Ciudad Victoria Airport, Mexico

3:47 PM CST on April 01, 2015 (GMT -0600)
Ciudad Victoria | | Change Station
CLOSE
Current Station
Airport
Location: Ciudad Victoria,
Elevation: 781 ft
Nearby Weather Stations

Elev 781 ft 23.70 °N, 98.96 °W | Updated 1 hour ago

Overcast
Overcast
84 °F
Feels Like 84 °F
N
7
Wind Variable Wind from SSW

Today
High -- | Low -- °F
--% Chance of Precip.
Yesterday
High -- | Low -- °F
Precip. -- in
6:28 AM 6:51 PM
Waxing Gibbous, 94% visible
Pressure 29.83 in
Visibility 7.0 miles
Clouds Overcast 25000 ft
Heat Index 84 °F
Dew Point 61 °F
Humidity 45%
Rainfall 0.00 in
Snow Depth Not available.
UV 3 out of 12
Pollen Not available.
Air Quality Not available.
Flu Activity Not available.
METAR MMCV 012041Z 20006KT 7SM OVC250 29/16 A2984 RMK SLP101 57020 977 8/007 HZY

More Conditions Fewer Conditions

Pressure 29.83 in
Visibility 7.0 miles
Clouds Overcast 25000 ft
Heat Index 84 °F
Dew Point 61 °F
Humidity 45%
Rainfall 0.00 in
Snow Depth Not available.
UV 3 out of 12
Pollen Not available.
Air Quality Not available.
Flu Activity Not available.
METAR MMCV 012041Z 20006KT 7SM OVC250 29/16 A2984 RMK SLP101 57020 977 8/007 HZY

More Conditions Fewer Conditions

10-Day Weather Forecast

Almanac

Astronomy

Apr. 01, 2015 Rise Set
Actual Time
Civil Twilight
Nautical Twilight
Astronomical Twilight
Moon
Length of Visible Light
Length of Day
Tomorrow will be .
, % of the Moon is Illuminated

Today's Extremes

Country Highs Country Lows

Community

WunderPhotos

Upload Photos

1,810,090 photos uploaded!

WunderBlogs® & News

Nearby

Air Quality

  Air Quality AQ Index Pollutant
Not available.

Snow Depth

Station Depth Elevation

Earthquake Activity

City Distance Mag. Time & Date
Minimum magnitude displayed is 2.5.

Coastal Water Temperatures

Place Temperature

Stations

Nearby Weather Stations

Station Location Temp. Windchill Dew Point Humidity Wind Precip. Elev Updated Type